sensor_id;sensor_type;location;lat;lon;timestamp;temperature;humidity
5334;DHT22;2689;50.954;7.116;2023-05-10T00:00:55;14.90;99.90
5334;DHT22;2689;50.954;7.116;2023-05-10T00:03:22;13.50;99.90
5334;DHT22;2689;50.954;7.116;2023-05-10T00:05:48;13.60;99.90
5334;DHT22;2689;50.954;7.116;2023-05-10T00:08:15;13.60;99.90
5334;DHT22;2689;50.954;7.116;2023-05-10T00:10:42;13.60;99.90
5334;DHT22;2689;50.954;7.116;2023-05-10T00:13:09;13.60;99.90
5334;DHT22;2689;50.954;7.116;2023-05-10T00:15:37;13.70;99.90
5334;DHT22;2689;50.954;7.116;2023-05-10T00:18:03;13.50;99.90
5334;DHT22;2689;50.954;7.116;2023-05-10T00:20:30;14.10;99.90
5334;DHT22;2689;50.954;7.116;2023-05-10T00:22:59;16.60;99.90
5334;DHT22;2689;50.954;7.116;2023-05-10T00:25:26;15.50;99.90
5334;DHT22;2689;50.954;7.116;2023-05-10T00:27:53;13.60;99.90
5334;DHT22;2689;50.954;7.116;2023-05-10T00:30:24;14.10;99.90
5334;DHT22;2689;50.954;7.116;2023-05-10T00:32:52;13.60;99.90
5334;DHT22;2689;50.954;7.116;2023-05-10T00:35:19;13.60;99.90
5334;DHT22;2689;50.954;7.116;2023-05-10T00:37:47;13.70;99.90
5334;DHT22;2689;50.954;7.116;2023-05-10T00:40:13;13.60;99.90
5334;DHT22;2689;50.954;7.116;2023-05-10T00:42:40;13.70;99.90
5334;DHT22;2689;50.954;7.116;2023-05-10T00:45:07;13.70;99.90
5334;DHT22;2689;50.954;7.116;2023-05-10T00:47:34;13.70;99.90
5334;DHT22;2689;50.954;7.116;2023-05-10T00:50:03;13.70;99.90
5334;DHT22;2689;50.954;7.116;2023-05-10T00:52:30;13.80;99.90
5334;DHT22;2689;50.954;7.116;2023-05-10T00:54:57;13.70;99.90
5334;DHT22;2689;50.954;7.116;2023-05-10T00:57:24;13.80;99.90
5334;DHT22;2689;50.954;7.116;2023-05-10T00:59:51;13.80;99.90
5334;DHT22;2689;50.954;7.116;2023-05-10T01:02:25;13.80;99.90
5334;DHT22;2689;50.954;7.116;2023-05-10T01:04:52;13.80;99.90
5334;DHT22;2689;50.954;7.116;2023-05-10T01:07:24;13.70;99.90
5334;DHT22;2689;50.954;7.116;2023-05-10T01:09:50;13.80;99.90
5334;DHT22;2689;50.954;7.116;2023-05-10T01:12:17;13.80;99.90
5334;DHT22;2689;50.954;7.116;2023-05-10T01:14:44;13.70;99.90
5334;DHT22;2689;50.954;7.116;2023-05-10T01:17:12;13.80;99.90
5334;DHT22;2689;50.954;7.116;2023-05-10T01:19:39;13.70;99.90
5334;DHT22;2689;50.954;7.116;2023-05-10T01:22:19;13.70;99.90
5334;DHT22;2689;50.954;7.116;2023-05-10T01:25:11;13.70;99.90
5334;DHT22;2689;50.954;7.116;2023-05-10T01:28:01;13.80;99.90
5334;DHT22;2689;50.954;7.116;2023-05-10T01:33:46;13.80;99.90
5334;DHT22;2689;50.954;7.116;2023-05-10T01:36:21;13.80;99.90
5334;DHT22;2689;50.954;7.116;2023-05-10T01:38:55;13.80;99.90
5334;DHT22;2689;50.954;7.116;2023-05-10T01:41:29;13.70;99.90
5334;DHT22;2689;50.954;7.116;2023-05-10T01:44:01;13.80;99.90
5334;DHT22;2689;50.954;7.116;2023-05-10T01:46:33;13.80;99.90
5334;DHT22;2689;50.954;7.116;2023-05-10T01:49:05;13.80;99.90
5334;DHT22;2689;50.954;7.116;2023-05-10T01:51:38;13.80;99.90
5334;DHT22;2689;50.954;7.116;2023-05-10T01:54:06;13.80;99.90
5334;DHT22;2689;50.954;7.116;2023-05-10T01:56:35;14.10;99.90
5334;DHT22;2689;50.954;7.116;2023-05-10T01:59:11;13.90;99.90
5334;DHT22;2689;50.954;7.116;2023-05-10T02:01:40;13.80;99.90
5334;DHT22;2689;50.954;7.116;2023-05-10T02:04:11;13.80;99.90
5334;DHT22;2689;50.954;7.116;2023-05-10T02:06:40;13.90;99.90
5334;DHT22;2689;50.954;7.116;2023-05-10T02:09:07;14.20;99.90
5334;DHT22;2689;50.954;7.116;2023-05-10T02:11:38;13.70;99.90
5334;DHT22;2689;50.954;7.116;2023-05-10T02:14:08;13.90;99.90
5334;DHT22;2689;50.954;7.116;2023-05-10T02:16:35;13.90;99.90
5334;DHT22;2689;50.954;7.116;2023-05-10T02:19:03;16.60;99.90
5334;DHT22;2689;50.954;7.116;2023-05-10T02:21:35;13.80;99.90
5334;DHT22;2689;50.954;7.116;2023-05-10T02:24:04;13.80;99.90
5334;DHT22;2689;50.954;7.116;2023-05-10T02:26:33;13.70;99.90
5334;DHT22;2689;50.954;7.116;2023-05-10T02:29:01;13.60;99.90
5334;DHT22;2689;50.954;7.116;2023-05-10T02:31:30;13.60;99.90
5334;DHT22;2689;50.954;7.116;2023-05-10T02:33:58;13.60;99.90
5334;DHT22;2689;50.954;7.116;2023-05-10T02:36:26;13.50;99.90
5334;DHT22;2689;50.954;7.116;2023-05-10T02:38:55;13.50;99.90
5334;DHT22;2689;50.954;7.116;2023-05-10T02:41:24;13.50;99.90
5334;DHT22;2689;50.954;7.116;2023-05-10T02:43:55;13.80;99.90
5334;DHT22;2689;50.954;7.116;2023-05-10T02:46:23;13.60;99.90
5334;DHT22;2689;50.954;7.116;2023-05-10T02:48:50;13.50;99.90
5334;DHT22;2689;50.954;7.116;2023-05-10T02:51:18;13.50;99.90
5334;DHT22;2689;50.954;7.116;2023-05-10T02:53:47;13.60;99.90
5334;DHT22;2689;50.954;7.116;2023-05-10T02:56:31;13.20;99.90
5334;DHT22;2689;50.954;7.116;2023-05-10T02:58:59;13.30;99.90
5334;DHT22;2689;50.954;7.116;2023-05-10T03:01:26;13.50;99.90
5334;DHT22;2689;50.954;7.116;2023-05-10T03:03:53;13.40;99.90
5334;DHT22;2689;50.954;7.116;2023-05-10T03:06:19;13.50;99.90
5334;DHT22;2689;50.954;7.116;2023-05-10T03:08:46;13.50;99.90
5334;DHT22;2689;50.954;7.116;2023-05-10T03:11:29;13.50;99.90
5334;DHT22;2689;50.954;7.116;2023-05-10T03:14:07;13.60;99.90
5334;DHT22;2689;50.954;7.116;2023-05-10T03:16:42;13.60;99.90
5334;DHT22;2689;50.954;7.116;2023-05-10T03:19:17;13.30;99.90
5334;DHT22;2689;50.954;7.116;2023-05-10T03:21:51;13.60;99.90
5334;DHT22;2689;50.954;7.116;2023-05-10T03:24:20;13.50;99.90
5334;DHT22;2689;50.954;7.116;2023-05-10T03:26:49;13.60;99.90
5334;DHT22;2689;50.954;7.116;2023-05-10T03:29:17;13.50;99.90
5334;DHT22;2689;50.954;7.116;2023-05-10T03:31:44;13.60;99.90
5334;DHT22;2689;50.954;7.116;2023-05-10T03:34:10;13.50;99.90
5334;DHT22;2689;50.954;7.116;2023-05-10T03:36:37;14.60;99.90
5334;DHT22;2689;50.954;7.116;2023-05-10T03:39:05;13.50;99.90
5334;DHT22;2689;50.954;7.116;2023-05-10T03:41:32;13.60;99.90
5334;DHT22;2689;50.954;7.116;2023-05-10T03:44:00;13.60;99.90
5334;DHT22;2689;50.954;7.116;2023-05-10T03:46:26;13.60;99.90
5334;DHT22;2689;50.954;7.116;2023-05-10T03:48:53;13.70;99.90
5334;DHT22;2689;50.954;7.116;2023-05-10T03:51:20;13.70;99.90
5334;DHT22;2689;50.954;7.116;2023-05-10T03:53:47;13.60;99.90
5334;DHT22;2689;50.954;7.116;2023-05-10T03:56:14;13.40;99.90
5334;DHT22;2689;50.954;7.116;2023-05-10T03:58:40;13.30;99.90
5334;DHT22;2689;50.954;7.116;2023-05-10T04:01:08;13.70;99.90
5334;DHT22;2689;50.954;7.116;2023-05-10T04:03:35;13.70;99.90
5334;DHT22;2689;50.954;7.116;2023-05-10T04:06:04;13.70;99.90
5334;DHT22;2689;50.954;7.116;2023-05-10T04:08:34;13.70;99.90
5334;DHT22;2689;50.954;7.116;2023-05-10T04:11:05;13.70;99.90
5334;DHT22;2689;50.954;7.116;2023-05-10T04:13:32;13.70;99.90
5334;DHT22;2689;50.954;7.116;2023-05-10T04:15:59;13.70;99.90
5334;DHT22;2689;50.954;7.116;2023-05-10T04:18:27;13.80;99.90
5334;DHT22;2689;50.954;7.116;2023-05-10T04:20:55;14.10;99.90
5334;DHT22;2689;50.954;7.116;2023-05-10T04:23:22;13.80;99.90
5334;DHT22;2689;50.954;7.116;2023-05-10T04:25:48;13.80;99.90
5334;DHT22;2689;50.954;7.116;2023-05-10T04:28:15;13.90;99.90
5334;DHT22;2689;50.954;7.116;2023-05-10T04:30:42;13.90;99.90
5334;DHT22;2689;50.954;7.116;2023-05-10T04:33:09;13.90;99.90
5334;DHT22;2689;50.954;7.116;2023-05-10T04:35:37;13.90;99.90
5334;DHT22;2689;50.954;7.116;2023-05-10T04:38:05;13.90;99.90
5334;DHT22;2689;50.954;7.116;2023-05-10T04:40:32;13.90;99.90
5334;DHT22;2689;50.954;7.116;2023-05-10T04:42:59;16.60;99.90
5334;DHT22;2689;50.954;7.116;2023-05-10T04:45:26;13.80;99.90
5334;DHT22;2689;50.954;7.116;2023-05-10T04:47:52;13.90;99.90
5334;DHT22;2689;50.954;7.116;2023-05-10T04:50:19;13.90;99.90
5334;DHT22;2689;50.954;7.116;2023-05-10T04:52:49;13.90;99.90
5334;DHT22;2689;50.954;7.116;2023-05-10T04:55:15;14.00;99.90
5334;DHT22;2689;50.954;7.116;2023-05-10T04:57:45;14.00;99.90
5334;DHT22;2689;50.954;7.116;2023-05-10T05:00:12;14.00;99.90
5334;DHT22;2689;50.954;7.116;2023-05-10T05:02:42;13.90;99.90
5334;DHT22;2689;50.954;7.116;2023-05-10T05:05:12;13.90;99.90
5334;DHT22;2689;50.954;7.116;2023-05-10T05:07:39;14.00;99.90
5334;DHT22;2689;50.954;7.116;2023-05-10T05:10:08;13.90;99.90
5334;DHT22;2689;50.954;7.116;2023-05-10T05:12:35;14.00;99.90
5334;DHT22;2689;50.954;7.116;2023-05-10T05:15:02;13.90;99.90
5334;DHT22;2689;50.954;7.116;2023-05-10T05:17:31;13.90;99.90
5334;DHT22;2689;50.954;7.116;2023-05-10T05:19:57;14.00;99.90
5334;DHT22;2689;50.954;7.116;2023-05-10T05:22:24;13.90;99.90
5334;DHT22;2689;50.954;7.116;2023-05-10T05:24:53;13.80;99.90
5334;DHT22;2689;50.954;7.116;2023-05-10T05:27:21;13.90;99.90
5334;DHT22;2689;50.954;7.116;2023-05-10T05:29:49;13.80;99.90
5334;DHT22;2689;50.954;7.116;2023-05-10T05:32:16;13.90;99.90
5334;DHT22;2689;50.954;7.116;2023-05-10T05:34:44;14.00;99.90
5334;DHT22;2689;50.954;7.116;2023-05-10T05:37:13;14.00;99.90
5334;DHT22;2689;50.954;7.116;2023-05-10T05:39:39;14.00;99.90
5334;DHT22;2689;50.954;7.116;2023-05-10T05:42:06;14.10;99.90
5334;DHT22;2689;50.954;7.116;2023-05-10T05:44:34;14.00;99.90
5334;DHT22;2689;50.954;7.116;2023-05-10T05:47:01;14.00;99.90
5334;DHT22;2689;50.954;7.116;2023-05-10T05:49:28;14.10;99.90
5334;DHT22;2689;50.954;7.116;2023-05-10T05:51:58;14.10;99.90
5334;DHT22;2689;50.954;7.116;2023-05-10T05:54:25;14.10;99.90
5334;DHT22;2689;50.954;7.116;2023-05-10T05:56:53;14.10;99.90
5334;DHT22;2689;50.954;7.116;2023-05-10T05:59:20;14.10;99.90
5334;DHT22;2689;50.954;7.116;2023-05-10T06:01:48;14.20;99.90
5334;DHT22;2689;50.954;7.116;2023-05-10T06:04:15;14.20;99.90
5334;DHT22;2689;50.954;7.116;2023-05-10T06:06:42;14.20;99.90
5334;DHT22;2689;50.954;7.116;2023-05-10T06:09:12;14.30;99.90
5334;DHT22;2689;50.954;7.116;2023-05-10T06:11:39;14.30;99.90
5334;DHT22;2689;50.954;7.116;2023-05-10T06:14:06;14.30;99.90
5334;DHT22;2689;50.954;7.116;2023-05-10T06:16:33;16.90;99.90
5334;DHT22;2689;50.954;7.116;2023-05-10T06:19:01;14.90;99.90
5334;DHT22;2689;50.954;7.116;2023-05-10T06:21:28;14.40;99.90
5334;DHT22;2689;50.954;7.116;2023-05-10T06:23:55;14.40;99.90
5334;DHT22;2689;50.954;7.116;2023-05-10T06:26:22;14.30;99.90
5334;DHT22;2689;50.954;7.116;2023-05-10T06:28:49;14.30;99.90
5334;DHT22;2689;50.954;7.116;2023-05-10T06:31:15;15.40;99.90
5334;DHT22;2689;50.954;7.116;2023-05-10T06:33:43;14.20;99.90
5334;DHT22;2689;50.954;7.116;2023-05-10T06:36:11;14.80;99.90
5334;DHT22;2689;50.954;7.116;2023-05-10T06:38:38;14.20;99.90
5334;DHT22;2689;50.954;7.116;2023-05-10T06:41:05;14.30;99.90
5334;DHT22;2689;50.954;7.116;2023-05-10T06:43:34;14.30;99.90
5334;DHT22;2689;50.954;7.116;2023-05-10T06:46:03;14.30;99.90
5334;DHT22;2689;50.954;7.116;2023-05-10T06:48:30;14.40;99.90
5334;DHT22;2689;50.954;7.116;2023-05-10T06:50:56;14.40;99.90
5334;DHT22;2689;50.954;7.116;2023-05-10T06:53:24;14.40;99.90
5334;DHT22;2689;50.954;7.116;2023-05-10T06:55:51;14.30;99.90
5334;DHT22;2689;50.954;7.116;2023-05-10T06:58:18;14.30;99.90
5334;DHT22;2689;50.954;7.116;2023-05-10T07:00:52;14.30;99.90
5334;DHT22;2689;50.954;7.116;2023-05-10T07:03:19;14.30;99.90
5334;DHT22;2689;50.954;7.116;2023-05-10T07:05:46;14.30;99.90
5334;DHT22;2689;50.954;7.116;2023-05-10T07:08:13;14.30;99.90
5334;DHT22;2689;50.954;7.116;2023-05-10T07:10:41;14.20;99.90
5334;DHT22;2689;50.954;7.116;2023-05-10T07:13:08;13.90;99.90
5334;DHT22;2689;50.954;7.116;2023-05-10T07:15:35;14.20;99.90
5334;DHT22;2689;50.954;7.116;2023-05-10T07:18:02;14.60;99.90
5334;DHT22;2689;50.954;7.116;2023-05-10T07:20:31;14.80;99.90
5334;DHT22;2689;50.954;7.116;2023-05-10T07:23:00;14.10;99.90
5334;DHT22;2689;50.954;7.116;2023-05-10T07:25:27;14.10;99.90
5334;DHT22;2689;50.954;7.116;2023-05-10T07:27:55;14.20;99.90
5334;DHT22;2689;50.954;7.116;2023-05-10T07:30:22;15.40;99.90
5334;DHT22;2689;50.954;7.116;2023-05-10T07:32:49;14.20;99.90
5334;DHT22;2689;50.954;7.116;2023-05-10T07:35:15;14.20;99.90
5334;DHT22;2689;50.954;7.116;2023-05-10T07:37:42;15.90;99.90
5334;DHT22;2689;50.954;7.116;2023-05-10T07:40:09;14.70;99.90
5334;DHT22;2689;50.954;7.116;2023-05-10T07:42:36;14.20;99.90
5334;DHT22;2689;50.954;7.116;2023-05-10T07:45:07;14.10;99.90
5334;DHT22;2689;50.954;7.116;2023-05-10T07:47:34;14.20;99.90
5334;DHT22;2689;50.954;7.116;2023-05-10T07:50:02;14.20;99.90
5334;DHT22;2689;50.954;7.116;2023-05-10T07:52:29;14.20;99.90
5334;DHT22;2689;50.954;7.116;2023-05-10T07:54:56;14.20;99.90
5334;DHT22;2689;50.954;7.116;2023-05-10T07:57:22;14.20;99.90
5334;DHT22;2689;50.954;7.116;2023-05-10T07:59:52;14.20;99.90
5334;DHT22;2689;50.954;7.116;2023-05-10T08:02:20;14.20;99.90
5334;DHT22;2689;50.954;7.116;2023-05-10T08:04:47;14.00;99.90
5334;DHT22;2689;50.954;7.116;2023-05-10T08:07:14;16.00;99.90
5334;DHT22;2689;50.954;7.116;2023-05-10T08:09:40;14.20;99.90
5334;DHT22;2689;50.954;7.116;2023-05-10T08:12:07;14.30;99.90
5334;DHT22;2689;50.954;7.116;2023-05-10T08:14:34;14.40;99.90
5334;DHT22;2689;50.954;7.116;2023-05-10T08:17:02;14.50;99.90
5334;DHT22;2689;50.954;7.116;2023-05-10T08:19:30;15.30;99.90
5334;DHT22;2689;50.954;7.116;2023-05-10T08:21:56;13.80;99.90
5334;DHT22;2689;50.954;7.116;2023-05-10T08:24:23;14.50;99.90
5334;DHT22;2689;50.954;7.116;2023-05-10T08:26:50;14.50;99.90
5334;DHT22;2689;50.954;7.116;2023-05-10T08:29:16;14.50;99.90
5334;DHT22;2689;50.954;7.116;2023-05-10T08:31:43;14.50;99.90
5334;DHT22;2689;50.954;7.116;2023-05-10T08:34:10;14.60;99.90
5334;DHT22;2689;50.954;7.116;2023-05-10T08:36:41;14.60;99.90
5334;DHT22;2689;50.954;7.116;2023-05-10T08:39:07;14.60;99.90
5334;DHT22;2689;50.954;7.116;2023-05-10T08:41:36;15.10;99.90
5334;DHT22;2689;50.954;7.116;2023-05-10T08:44:08;14.70;99.90
5334;DHT22;2689;50.954;7.116;2023-05-10T08:46:37;14.80;99.90
5334;DHT22;2689;50.954;7.116;2023-05-10T08:49:07;14.90;99.90
5334;DHT22;2689;50.954;7.116;2023-05-10T08:51:38;15.60;99.90
5334;DHT22;2689;50.954;7.116;2023-05-10T08:54:05;15.10;99.90
5334;DHT22;2689;50.954;7.116;2023-05-10T08:56:32;15.10;99.90
5334;DHT22;2689;50.954;7.116;2023-05-10T08:58:59;15.20;99.90
5334;DHT22;2689;50.954;7.116;2023-05-10T09:01:27;15.30;99.90
5334;DHT22;2689;50.954;7.116;2023-05-10T09:03:54;17.20;99.90
5334;DHT22;2689;50.954;7.116;2023-05-10T09:06:21;15.40;99.90
5334;DHT22;2689;50.954;7.116;2023-05-10T09:08:49;15.50;99.90
5334;DHT22;2689;50.954;7.116;2023-05-10T09:11:17;16.00;99.90
5334;DHT22;2689;50.954;7.116;2023-05-10T09:13:44;16.20;99.90
5334;DHT22;2689;50.954;7.116;2023-05-10T09:16:12;15.10;99.90
5334;DHT22;2689;50.954;7.116;2023-05-10T09:18:38;15.00;99.90
5334;DHT22;2689;50.954;7.116;2023-05-10T09:21:05;14.80;99.90
5334;DHT22;2689;50.954;7.116;2023-05-10T09:23:32;14.70;99.90
5334;DHT22;2689;50.954;7.116;2023-05-10T09:26:04;14.60;99.90
5334;DHT22;2689;50.954;7.116;2023-05-10T09:28:34;14.50;99.90
5334;DHT22;2689;50.954;7.116;2023-05-10T09:31:16;14.50;99.90
5334;DHT22;2689;50.954;7.116;2023-05-10T09:33:45;14.40;99.90
5334;DHT22;2689;50.954;7.116;2023-05-10T09:36:13;14.50;99.90
5334;DHT22;2689;50.954;7.116;2023-05-10T09:38:47;14.60;99.90
5334;DHT22;2689;50.954;7.116;2023-05-10T09:41:19;14.50;99.90
5334;DHT22;2689;50.954;7.116;2023-05-10T09:43:46;14.50;99.90
5334;DHT22;2689;50.954;7.116;2023-05-10T09:46:13;14.60;99.90
5334;DHT22;2689;50.954;7.116;2023-05-10T09:48:43;15.70;99.90
5334;DHT22;2689;50.954;7.116;2023-05-10T09:51:10;14.60;99.90
5334;DHT22;2689;50.954;7.116;2023-05-10T09:53:37;14.60;99.90
5334;DHT22;2689;50.954;7.116;2023-05-10T09:56:06;14.70;99.90
5334;DHT22;2689;50.954;7.116;2023-05-10T09:58:36;14.80;99.90
5334;DHT22;2689;50.954;7.116;2023-05-10T10:01:04;14.80;99.90
5334;DHT22;2689;50.954;7.116;2023-05-10T10:03:31;15.50;99.90
5334;DHT22;2689;50.954;7.116;2023-05-10T10:05:57;15.00;99.90
5334;DHT22;2689;50.954;7.116;2023-05-10T10:08:25;14.80;99.90
5334;DHT22;2689;50.954;7.116;2023-05-10T10:10:51;15.10;99.90
5334;DHT22;2689;50.954;7.116;2023-05-10T10:13:18;15.10;99.90
5334;DHT22;2689;50.954;7.116;2023-05-10T10:15:47;15.00;99.90
5334;DHT22;2689;50.954;7.116;2023-05-10T10:18:16;15.10;99.90
5334;DHT22;2689;50.954;7.116;2023-05-10T10:20:45;15.00;99.90
5334;DHT22;2689;50.954;7.116;2023-05-10T10:23:12;15.00;99.90
5334;DHT22;2689;50.954;7.116;2023-05-10T10:25:39;15.00;99.90
5334;DHT22;2689;50.954;7.116;2023-05-10T10:28:16;14.80;99.90
5334;DHT22;2689;50.954;7.116;2023-05-10T10:30:50;15.70;99.90
5334;DHT22;2689;50.954;7.116;2023-05-10T10:33:36;14.70;99.90
5334;DHT22;2689;50.954;7.116;2023-05-10T10:36:05;14.70;99.90
5334;DHT22;2689;50.954;7.116;2023-05-10T10:38:57;14.70;99.90
5334;DHT22;2689;50.954;7.116;2023-05-10T10:41:31;14.70;99.90
5334;DHT22;2689;50.954;7.116;2023-05-10T10:44:23;14.80;99.90
5334;DHT22;2689;50.954;7.116;2023-05-10T10:47:23;14.80;99.90
5334;DHT22;2689;50.954;7.116;2023-05-10T10:50:03;15.00;99.90
5334;DHT22;2689;50.954;7.116;2023-05-10T10:52:33;15.20;99.90
5334;DHT22;2689;50.954;7.116;2023-05-10T10:55:03;15.40;99.90
5334;DHT22;2689;50.954;7.116;2023-05-10T10:57:44;15.80;99.90
5334;DHT22;2689;50.954;7.116;2023-05-10T11:00:26;16.70;99.90
5334;DHT22;2689;50.954;7.116;2023-05-10T11:02:58;16.40;99.90
5334;DHT22;2689;50.954;7.116;2023-05-10T11:05:36;16.70;99.90
5334;DHT22;2689;50.954;7.116;2023-05-10T11:08:12;16.80;99.90
5334;DHT22;2689;50.954;7.116;2023-05-10T11:10:50;16.70;99.90
5334;DHT22;2689;50.954;7.116;2023-05-10T11:13:30;16.80;99.90
5334;DHT22;2689;50.954;7.116;2023-05-10T11:15:58;16.60;99.90
5334;DHT22;2689;50.954;7.116;2023-05-10T11:18:28;17.30;99.90
5334;DHT22;2689;50.954;7.116;2023-05-10T11:20:57;17.60;99.90
5334;DHT22;2689;50.954;7.116;2023-05-10T11:23:30;16.90;99.90
5334;DHT22;2689;50.954;7.116;2023-05-10T11:25:58;17.00;99.90
5334;DHT22;2689;50.954;7.116;2023-05-10T11:28:26;16.70;99.90
5334;DHT22;2689;50.954;7.116;2023-05-10T11:30:53;16.80;99.90
5334;DHT22;2689;50.954;7.116;2023-05-10T11:33:20;17.90;99.90
5334;DHT22;2689;50.954;7.116;2023-05-10T11:35:48;17.40;99.90
5334;DHT22;2689;50.954;7.116;2023-05-10T11:38:15;17.70;99.90
5334;DHT22;2689;50.954;7.116;2023-05-10T11:40:42;17.30;99.90
5334;DHT22;2689;50.954;7.116;2023-05-10T11:43:09;17.20;99.90
5334;DHT22;2689;50.954;7.116;2023-05-10T11:45:37;16.90;99.90
5334;DHT22;2689;50.954;7.116;2023-05-10T11:48:04;16.80;99.90
5334;DHT22;2689;50.954;7.116;2023-05-10T11:50:31;16.70;99.90
5334;DHT22;2689;50.954;7.116;2023-05-10T11:52:59;16.70;99.90
5334;DHT22;2689;50.954;7.116;2023-05-10T11:55:26;16.70;99.90
5334;DHT22;2689;50.954;7.116;2023-05-10T11:57:55;16.90;99.90
5334;DHT22;2689;50.954;7.116;2023-05-10T12:00:26;16.90;99.90
5334;DHT22;2689;50.954;7.116;2023-05-10T12:02:53;17.10;99.90
5334;DHT22;2689;50.954;7.116;2023-05-10T12:05:20;18.00;99.90
5334;DHT22;2689;50.954;7.116;2023-05-10T12:07:47;17.60;99.90
5334;DHT22;2689;50.954;7.116;2023-05-10T12:10:25;17.60;99.90
5334;DHT22;2689;50.954;7.116;2023-05-10T12:12:53;18.00;99.90
5334;DHT22;2689;50.954;7.116;2023-05-10T12:15:21;17.60;99.90
5334;DHT22;2689;50.954;7.116;2023-05-10T12:17:49;17.70;99.90
5334;DHT22;2689;50.954;7.116;2023-05-10T12:20:17;17.40;99.90
5334;DHT22;2689;50.954;7.116;2023-05-10T12:22:46;17.30;99.90
5334;DHT22;2689;50.954;7.116;2023-05-10T12:25:14;19.10;99.90
5334;DHT22;2689;50.954;7.116;2023-05-10T12:27:48;17.00;99.90
5334;DHT22;2689;50.954;7.116;2023-05-10T12:30:21;17.30;99.90
5334;DHT22;2689;50.954;7.116;2023-05-10T12:32:49;18.40;99.90
5334;DHT22;2689;50.954;7.116;2023-05-10T12:35:16;18.10;99.90
5334;DHT22;2689;50.954;7.116;2023-05-10T12:37:46;18.20;99.90
5334;DHT22;2689;50.954;7.116;2023-05-10T12:40:13;18.90;99.90
5334;DHT22;2689;50.954;7.116;2023-05-10T12:42:44;19.70;99.90
5334;DHT22;2689;50.954;7.116;2023-05-10T12:45:14;19.50;99.90
5334;DHT22;2689;50.954;7.116;2023-05-10T12:47:40;19.90;99.30
5334;DHT22;2689;50.954;7.116;2023-05-10T12:50:08;21.00;99.90
5334;DHT22;2689;50.954;7.116;2023-05-10T12:52:35;21.70;95.30
5334;DHT22;2689;50.954;7.116;2023-05-10T12:55:02;22.30;95.30
5334;DHT22;2689;50.954;7.116;2023-05-10T12:57:29;22.90;94.00
5334;DHT22;2689;50.954;7.116;2023-05-10T12:59:57;23.40;91.50
5334;DHT22;2689;50.954;7.116;2023-05-10T13:02:24;23.80;90.70
5334;DHT22;2689;50.954;7.116;2023-05-10T13:04:51;23.50;89.10
5334;DHT22;2689;50.954;7.116;2023-05-10T13:07:17;24.00;88.90
5334;DHT22;2689;50.954;7.116;2023-05-10T13:09:46;22.70;89.20
5334;DHT22;2689;50.954;7.116;2023-05-10T13:12:13;21.50;90.70
5334;DHT22;2689;50.954;7.116;2023-05-10T13:14:40;22.20;91.90
5334;DHT22;2689;50.954;7.116;2023-05-10T13:17:08;24.00;93.50
5334;DHT22;2689;50.954;7.116;2023-05-10T13:19:35;21.50;93.20
5334;DHT22;2689;50.954;7.116;2023-05-10T13:22:13;21.30;95.20
5334;DHT22;2689;50.954;7.116;2023-05-10T13:24:39;21.20;93.00
5334;DHT22;2689;50.954;7.116;2023-05-10T13:27:06;21.60;93.00
5334;DHT22;2689;50.954;7.116;2023-05-10T13:29:33;20.70;91.90
5334;DHT22;2689;50.954;7.116;2023-05-10T13:32:00;20.80;93.00
5334;DHT22;2689;50.954;7.116;2023-05-10T13:34:28;20.60;94.20
5334;DHT22;2689;50.954;7.116;2023-05-10T13:36:55;20.50;94.20
5334;DHT22;2689;50.954;7.116;2023-05-10T13:39:23;21.40;93.00
5334;DHT22;2689;50.954;7.116;2023-05-10T13:41:50;22.40;91.10
5334;DHT22;2689;50.954;7.116;2023-05-10T13:44:17;23.50;91.30
5334;DHT22;2689;50.954;7.116;2023-05-10T13:46:44;22.40;84.30
5334;DHT22;2689;50.954;7.116;2023-05-10T13:49:12;24.10;81.40
5334;DHT22;2689;50.954;7.116;2023-05-10T13:51:40;24.30;79.40
5334;DHT22;2689;50.954;7.116;2023-05-10T13:54:07;24.70;80.80
5334;DHT22;2689;50.954;7.116;2023-05-10T13:56:34;24.10;81.20
5334;DHT22;2689;50.954;7.116;2023-05-10T13:59:01;25.10;82.40
5334;DHT22;2689;50.954;7.116;2023-05-10T14:01:27;25.40;84.80
5334;DHT22;2689;50.954;7.116;2023-05-10T14:03:54;22.50;83.50
5334;DHT22;2689;50.954;7.116;2023-05-10T14:06:21;21.70;86.50
5334;DHT22;2689;50.954;7.116;2023-05-10T14:08:49;21.40;86.30
5334;DHT22;2689;50.954;7.116;2023-05-10T14:11:16;20.80;89.40
5334;DHT22;2689;50.954;7.116;2023-05-10T14:13:43;20.40;88.50
5334;DHT22;2689;50.954;7.116;2023-05-10T14:16:09;20.00;90.30
5334;DHT22;2689;50.954;7.116;2023-05-10T14:18:37;19.60;90.60
5334;DHT22;2689;50.954;7.116;2023-05-10T14:21:03;19.40;91.50
5334;DHT22;2689;50.954;7.116;2023-05-10T14:23:30;19.10;92.80
5334;DHT22;2689;50.954;7.116;2023-05-10T14:25:58;19.80;94.00
5334;DHT22;2689;50.954;7.116;2023-05-10T14:28:25;19.80;94.60
5334;DHT22;2689;50.954;7.116;2023-05-10T14:30:52;19.10;94.70
5334;DHT22;2689;50.954;7.116;2023-05-10T14:33:19;19.30;96.40
5334;DHT22;2689;50.954;7.116;2023-05-10T14:35:47;19.10;95.00
5334;DHT22;2689;50.954;7.116;2023-05-10T14:38:13;19.00;94.00
5334;DHT22;2689;50.954;7.116;2023-05-10T14:40:40;19.70;94.60
5334;DHT22;2689;50.954;7.116;2023-05-10T14:43:09;21.30;95.10
5334;DHT22;2689;50.954;7.116;2023-05-10T14:45:38;19.10;94.30
5334;DHT22;2689;50.954;7.116;2023-05-10T14:48:05;19.10;95.10
5334;DHT22;2689;50.954;7.116;2023-05-10T14:50:33;19.60;94.00
5334;DHT22;2689;50.954;7.116;2023-05-10T14:53:00;19.20;93.00
5334;DHT22;2689;50.954;7.116;2023-05-10T14:55:30;19.50;93.60
5334;DHT22;2689;50.954;7.116;2023-05-10T14:57:57;18.80;94.20
5334;DHT22;2689;50.954;7.116;2023-05-10T15:00:26;20.50;95.00
5334;DHT22;2689;50.954;7.116;2023-05-10T15:02:54;18.80;94.00
5334;DHT22;2689;50.954;7.116;2023-05-10T15:05:20;18.90;94.20
5334;DHT22;2689;50.954;7.116;2023-05-10T15:07:47;19.00;95.70
5334;DHT22;2689;50.954;7.116;2023-05-10T15:10:15;18.60;94.00
5334;DHT22;2689;50.954;7.116;2023-05-10T15:12:41;18.70;94.40
5334;DHT22;2689;50.954;7.116;2023-05-10T15:15:08;18.30;94.10
5334;DHT22;2689;50.954;7.116;2023-05-10T15:17:37;18.70;94.70
5334;DHT22;2689;50.954;7.116;2023-05-10T15:20:04;18.50;95.00
5334;DHT22;2689;50.954;7.116;2023-05-10T15:22:32;18.60;95.70
5334;DHT22;2689;50.954;7.116;2023-05-10T15:24:59;19.00;95.40
5334;DHT22;2689;50.954;7.116;2023-05-10T15:27:25;20.10;97.50
5334;DHT22;2689;50.954;7.116;2023-05-10T15:29:52;18.50;97.70
5334;DHT22;2689;50.954;7.116;2023-05-10T15:32:19;20.60;99.90
5334;DHT22;2689;50.954;7.116;2023-05-10T15:34:47;18.20;99.90
5334;DHT22;2689;50.954;7.116;2023-05-10T15:37:14;18.30;99.90
5334;DHT22;2689;50.954;7.116;2023-05-10T15:39:41;18.80;99.90
5334;DHT22;2689;50.954;7.116;2023-05-10T15:42:10;18.60;99.90
5334;DHT22;2689;50.954;7.116;2023-05-10T15:44:36;17.80;99.90
5334;DHT22;2689;50.954;7.116;2023-05-10T15:47:04;18.50;99.90
5334;DHT22;2689;50.954;7.116;2023-05-10T15:49:31;17.60;99.90
5334;DHT22;2689;50.954;7.116;2023-05-10T15:51:59;16.80;99.90
5334;DHT22;2689;50.954;7.116;2023-05-10T15:54:26;20.00;99.90
5334;DHT22;2689;50.954;7.116;2023-05-10T15:56:53;18.30;99.90
5334;DHT22;2689;50.954;7.116;2023-05-10T15:59:20;17.30;99.90
5334;DHT22;2689;50.954;7.116;2023-05-10T16:01:48;17.30;99.90
5334;DHT22;2689;50.954;7.116;2023-05-10T16:04:15;17.40;99.90
5334;DHT22;2689;50.954;7.116;2023-05-10T16:06:42;17.70;99.90
5334;DHT22;2689;50.954;7.116;2023-05-10T16:09:12;17.20;99.90
5334;DHT22;2689;50.954;7.116;2023-05-10T16:11:39;17.20;99.90
5334;DHT22;2689;50.954;7.116;2023-05-10T16:14:06;19.80;99.90